Paris, Maine
Current Conditions -  °F | °C
As of 1:55 PM on Tuesday 27 Jan 2015 (Local Time) from KLEW Reporting Station
NA  
Wind Chill: -9°   Ceiling: NA
Heat Index: 10°   Visibility: 0mi
Dew Point:   Wind: 22mph
Humidity: 85%   Direction: 10°N
Pressure: 29.54"   Gusts: 30mph
Location:  44.26°N, 70.5°W
Report Text: KLEW 271855Z AUTO 01019G26KT M1/4SM M12/M14 A2954 RMK AO1
Loading
Personal Weather Stations






























Interactive Weather Map New forecast layout! Learn more

10-Day Weather Forecast

Advertisements
Track Severe Weather on mobile